Time;durP1;ratioP1;P1;durP2;ratioP2;P2;SDS_P1;SDS_P2;PMS_P1;PMS_P2;Temp;Humidity;BMP_temperature;BMP_pressure;BME280_temperature;BME280_humidity;BME280_pressure;Samples;Min_cycle;Max_cycle;Signal;HPM_P1;HPM_P2
2021/08/23 00:01:06;;;;;;;4.45;2.60;;;14.20;86.80;;;;;;5157484;27;20031;-73
2021/08/23 00:03:31;;;;;;;4.38;2.30;;;14.10;87.30;;;;;;5157581;27;20722;-73
2021/08/23 00:05:57;;;;;;;3.75;2.28;;;14.10;87.40;;;;;;5157529;27;20110;-73
2021/08/23 00:08:25;;;;;;;4.22;2.30;;;14.00;87.00;;;;;;5157382;27;20068;-73
2021/08/23 00:10:50;;;;;;;4.47;2.80;;;14.00;87.30;;;;;;5157281;27;20025;-73
2021/08/23 00:13:16;;;;;;;3.28;2.50;;;14.00;87.30;;;;;;5157046;27;20019;-73
2021/08/23 00:15:44;;;;;;;4.20;2.40;;;14.00;87.30;;;;;;5157236;27;20034;-73
2021/08/23 00:18:10;;;;;;;4.63;1.83;;;14.00;87.00;;;;;;5157343;27;20050;-73
2021/08/23 00:20:42;;;;;;;4.13;2.10;;;14.00;86.90;;;;;;5163995;27;20075;-74
2021/08/23 00:23:13;;;;;;;2.90;2.42;;;14.00;86.70;;;;;;5165583;27;20019;-75
2021/08/23 00:25:39;;;;;;;6.30;2.17;;;14.00;86.50;;;;;;5161091;27;20253;-73
2021/08/23 00:28:08;;;;;;;4.57;2.08;;;14.00;86.50;;;;;;5157246;27;20022;-73
2021/08/23 00:30:34;;;;;;;4.97;2.00;;;14.00;86.60;;;;;;5156973;27;20502;-74
2021/08/23 00:32:59;;;;;;;5.18;2.13;;;13.90;86.50;;;;;;5156990;27;20015;-73
2021/08/23 00:35:25;;;;;;;5.15;2.47;;;13.90;86.90;;;;;;5156925;27;20031;-73
2021/08/23 00:37:51;;;;;;;3.45;2.30;;;13.90;86.90;;;;;;5156909;27;20023;-73
2021/08/23 00:40:17;;;;;;;3.45;1.90;;;13.80;86.90;;;;;;5156714;27;20034;-73
2021/08/23 00:42:42;;;;;;;3.47;2.30;;;13.90;87.10;;;;;;5156776;27;20015;-74
2021/08/23 00:45:08;;;;;;;5.85;2.38;;;13.90;87.00;;;;;;5156612;27;20105;-74
2021/08/23 00:47:35;;;;;;;6.13;2.22;;;13.90;86.90;;;;;;5156698;27;20025;-73
2021/08/23 00:50:03;;;;;;;3.08;1.92;;;13.80;87.00;;;;;;5156543;27;20352;-73
2021/08/23 00:52:28;;;;;;;4.45;2.45;;;13.80;86.80;;;;;;5156385;27;20459;-73
2021/08/23 00:54:54;;;;;;;2.20;1.85;;;13.80;86.60;;;;;;5156595;27;20058;-73
2021/08/23 00:57:20;;;;;;;3.85;1.85;;;13.80;86.70;;;;;;5156580;27;20058;-73
2021/08/23 00:59:47;;;;;;;2.33;2.00;;;13.80;87.00;;;;;;5156405;27;20041;-73
2021/08/23 01:02:35;;;;;;;5.78;2.13;;;13.80;87.70;;;;;;5156380;27;20027;-73
2021/08/23 01:05:19;;;;;;;2.63;2.13;;;13.90;86.70;;;;;;5137892;27;20019;-74
2021/08/23 01:07:59;;;;;;;3.10;2.03;;;13.80;86.60;;;;;;5156283;27;20048;-74
2021/08/23 01:10:31;;;;;;;6.63;2.22;;;13.90;86.50;;;;;;5156217;27;20490;-74
2021/08/23 01:12:58;;;;;;;6.53;2.45;;;13.90;86.40;;;;;;5156149;27;20027;-74
2021/08/23 01:15:24;;;;;;;4.95;1.85;;;13.90;86.40;;;;;;5156070;27;20031;-74
2021/08/23 01:17:50;;;;;;;4.22;1.88;;;13.80;86.30;;;;;;5156126;27;20428;-73
2021/08/23 01:20:16;;;;;;;3.35;1.80;;;13.90;86.40;;;;;;5156103;27;20164;-74
2021/08/23 01:22:47;;;;;;;2.22;1.65;;;13.90;86.30;;;;;;5155480;27;20502;-75
2021/08/23 01:25:22;;;;;;;2.50;1.75;;;13.90;86.10;;;;;;5155873;27;20014;-74
2021/08/23 01:27:56;;;;;;;;;;;13.90;86.10;;;;;;5137761;27;20019;-73
2021/08/23 01:30:22;;;;;;;6.65;1.60;;;13.90;86.00;;;;;;5155906;27;19929;-74
2021/08/23 01:32:48;;;;;;;4.70;2.30;;;13.80;86.50;;;;;;5155848;27;20479;-73
2021/08/23 01:35:14;;;;;;;3.28;2.15;;;13.80;86.60;;;;;;5155749;27;20027;-74
2021/08/23 01:37:39;;;;;;;2.67;1.75;;;13.80;87.30;;;;;;5155404;27;20068;-73
2021/08/23 01:40:07;;;;;;;3.45;1.70;;;13.70;87.10;;;;;;5155500;27;20035;-74
2021/08/23 01:42:32;;;;;;;4.32;2.28;;;13.80;87.20;;;;;;5155573;27;20023;-75
2021/08/23 01:44:58;;;;;;;6.53;2.33;;;13.80;87.20;;;;;;5155578;27;20027;-73
2021/08/23 01:47:24;;;;;;;4.95;2.28;;;13.80;87.10;;;;;;5155523;27;20027;-73
2021/08/23 01:49:49;;;;;;;4.28;2.03;;;13.90;87.10;;;;;;5155411;27;20135;-73
2021/08/23 01:52:15;;;;;;;5.18;2.20;;;13.80;87.10;;;;;;5155230;27;20077;-73
2021/08/23 01:54:43;;;;;;;3.17;1.90;;;13.90;87.10;;;;;;5155344;27;20463;-73
2021/08/23 01:57:16;;;;;;;2.20;1.73;;;13.90;86.90;;;;;;5155226;27;20091;-74
2021/08/23 01:59:43;;;;;;;4.95;2.08;;;13.90;86.90;;;;;;5155241;27;20506;-74
2021/08/23 02:02:09;;;;;;;3.60;1.88;;;13.90;86.90;;;;;;5155049;27;20031;-73
2021/08/23 02:04:34;;;;;;;2.85;1.63;;;13.90;86.90;;;;;;5155243;27;20018;-74
2021/08/23 02:07:00;;;;;;;3.75;2.20;;;13.90;86.90;;;;;;5155079;27;20071;-73
2021/08/23 02:09:26;;;;;;;3.13;2.20;;;13.80;86.70;;;;;;5155000;27;20026;-73
2021/08/23 02:11:51;;;;;;;3.13;1.83;;;13.90;87.10;;;;;;5136431;27;20113;-74
2021/08/23 02:14:17;;;;;;;5.80;2.58;;;13.80;87.30;;;;;;5154946;27;20035;-74
2021/08/23 02:16:42;;;;;;;6.72;2.17;;;13.80;87.40;;;;;;5154958;27;20122;-74
2021/08/23 02:19:09;;;;;;;2.70;1.88;;;13.80;87.70;;;;;;5154863;27;20591;-73
2021/08/23 02:21:48;;;;;;;3.58;2.03;;;13.70;87.80;;;;;;5154891;27;20069;-73
2021/08/23 02:24:14;;;;;;;2.72;1.88;;;13.70;87.70;;;;;;5154784;27;20030;-74
2021/08/23 02:26:40;;;;;;;5.18;2.30;;;13.70;87.90;;;;;;5154833;27;20019;-73
2021/08/23 02:29:05;;;;;;;2.55;1.90;;;13.70;88.10;;;;;;5154702;27;20019;-74
2021/08/23 02:31:31;;;;;;;2.97;2.00;;;13.60;88.20;;;;;;5154792;27;20098;-73
2021/08/23 02:33:56;;;;;;;6.57;2.20;;;13.70;88.10;;;;;;5154958;27;20023;-74
2021/08/23 02:36:22;;;;;;;4.07;1.92;;;13.60;87.70;;;;;;5155563;27;20057;-74
2021/08/23 02:38:49;;;;;;;2.53;1.90;;;13.60;87.80;;;;;;5154720;27;20023;-73
2021/08/23 02:41:15;;;;;;;2.83;2.05;;;13.70;87.90;;;;;;5154492;27;20481;-74
2021/08/23 02:43:41;;;;;;;4.00;2.00;;;13.60;87.80;;;;;;5154715;27;20494;-73
2021/08/23 02:46:06;;;;;;;6.65;2.60;;;13.50;88.10;;;;;;5154585;27;20031;-73
2021/08/23 02:48:32;;;;;;;3.65;1.98;;;13.50;88.40;;;;;;5154615;27;20023;-73
2021/08/23 02:50:58;;;;;;;3.13;2.10;;;13.50;88.50;;;;;;5154469;27;20023;-73
2021/08/23 02:53:23;;;;;;;5.00;2.40;;;13.50;88.00;;;;;;5154307;27;20115;-75
2021/08/23 02:55:49;;;;;;;4.82;2.10;;;13.40;87.80;;;;;;5154480;27;20023;-73
2021/08/23 02:58:14;;;;;;;3.17;2.00;;;13.50;87.80;;;;;;5154397;27;20044;-72
2021/08/23 03:00:40;;;;;;;3.63;2.28;;;13.50;87.50;;;;;;5154337;27;20479;-73
2021/08/23 03:03:06;;;;;;;4.88;2.53;;;13.40;87.50;;;;;;5154309;27;20511;-72
2021/08/23 03:05:31;;;;;;;6.50;1.98;;;13.40;87.70;;;;;;5154439;27;20034;-73
2021/08/23 03:07:57;;;;;;;5.18;2.40;;;13.40;87.70;;;;;;5154381;27;20423;-74
2021/08/23 03:10:22;;;;;;;3.08;2.33;;;13.40;87.70;;;;;;5154469;27;20027;-74
2021/08/23 03:12:48;;;;;;;5.60;2.45;;;13.50;87.70;;;;;;5154235;27;20026;-73
2021/08/23 03:15:14;;;;;;;3.17;1.85;;;13.50;87.40;;;;;;5154215;27;20015;-73
2021/08/23 03:17:39;;;;;;;4.30;2.17;;;13.50;87.00;;;;;;5154329;27;20069;-73
2021/08/23 03:20:05;;;;;;;4.45;2.08;;;13.40;87.00;;;;;;5154090;27;20030;-74
2021/08/23 03:22:31;;;;;;;3.00;1.75;;;13.50;87.20;;;;;;5154230;27;20026;-74
2021/08/23 03:24:57;;;;;;;2.17;1.92;;;13.50;87.20;;;;;;5154188;27;20493;-75
2021/08/23 03:27:22;;;;;;;5.35;2.35;;;13.50;87.30;;;;;;5135625;27;20027;-74
2021/08/23 03:29:51;;;;;;;4.40;2.20;;;13.50;87.30;;;;;;5135506;27;20062;-73
2021/08/23 03:32:17;;;;;;;2.72;1.75;;;13.40;87.60;;;;;;5154152;27;20446;-73
2021/08/23 03:34:43;;;;;;;3.53;2.17;;;13.40;88.00;;;;;;5154135;27;20026;-73
2021/08/23 03:37:09;;;;;;;4.53;2.33;;;13.40;88.10;;;;;;5154240;27;20102;-73
2021/08/23 03:39:34;;;;;;;9.45;2.33;;;13.40;88.30;;;;;;5154003;27;20051;-73
2021/08/23 03:42:00;;;;;;;4.18;1.92;;;13.40;88.80;;;;;;5153888;27;20481;-75
2021/08/23 03:44:25;;;;;;;2.80;1.60;;;13.30;88.10;;;;;;5153915;27;20023;-74
2021/08/23 03:46:52;;;;;;;3.25;1.88;;;13.30;88.10;;;;;;5156371;27;20053;-74
2021/08/23 03:49:18;;;;;;;2.28;2.00;;;13.30;88.20;;;;;;5157557;27;20010;-74
2021/08/23 03:51:44;;;;;;;5.32;2.15;;;13.30;88.40;;;;;;5157406;27;20026;-75
2021/08/23 03:54:09;;;;;;;2.30;2.00;;;13.40;88.30;;;;;;5157506;27;20035;-74
2021/08/23 03:56:35;;;;;;;2.53;2.10;;;13.50;88.10;;;;;;5139089;27;20023;-75
2021/08/23 03:59:00;;;;;;;4.40;2.00;;;13.40;87.90;;;;;;5138883;27;20479;-76
2021/08/23 04:01:26;;;;;;;3.10;1.92;;;13.50;88.10;;;;;;5157462;27;20023;-74
2021/08/23 04:03:52;;;;;;;3.05;1.98;;;13.50;88.00;;;;;;5157406;27;20034;-75
2021/08/23 04:06:17;;;;;;;3.17;1.70;;;13.50;87.70;;;;;;5158419;27;20031;-75
2021/08/23 04:08:43;;;;;;;6.25;2.20;;;13.60;87.60;;;;;;5161516;27;20019;-75
2021/08/23 04:11:13;;;;;;;5.82;1.98;;;13.50;87.50;;;;;;5163582;27;20030;-75
2021/08/23 04:13:39;;;;;;;5.03;2.30;;;13.40;87.50;;;;;;5162238;27;20047;-75
2021/08/23 04:16:10;;;;;;;4.65;2.55;;;13.40;87.80;;;;;;5158621;27;20027;-74
2021/08/23 04:18:35;;;;;;;7.07;2.33;;;13.40;88.40;;;;;;5157324;27;20023;-74
2021/08/23 04:21:01;;;;;;;3.88;2.25;;;13.30;88.60;;;;;;5157165;27;20141;-75
2021/08/23 04:23:27;;;;;;;3.22;2.15;;;13.40;88.90;;;;;;5157320;27;20538;-74
2021/08/23 04:25:52;;;;;;;5.07;2.20;;;13.40;89.10;;;;;;5157010;27;20015;-75
2021/08/23 04:28:18;;;;;;;5.15;2.75;;;13.40;88.90;;;;;;5157300;27;20567;-74
2021/08/23 04:30:44;;;;;;;4.38;2.78;;;13.40;88.80;;;;;;5157120;27;20022;-74
2021/08/23 04:33:09;;;;;;;2.40;2.20;;;13.40;88.80;;;;;;5157056;27;20030;-74
2021/08/23 04:35:35;;;;;;;3.70;1.92;;;13.40;88.70;;;;;;5157052;27;20039;-74
2021/08/23 04:38:00;;;;;;;4.13;2.03;;;13.40;88.70;;;;;;5156962;27;20022;-74
2021/08/23 04:40:26;;;;;;;3.58;2.47;;;13.40;88.70;;;;;;5156686;27;20038;-74
2021/08/23 04:42:51;;;;;;;5.85;2.25;;;13.40;88.30;;;;;;5157259;27;20046;-74
2021/08/23 04:45:17;;;;;;;4.82;2.28;;;13.40;88.70;;;;;;5157068;27;20027;-74
2021/08/23 04:47:43;;;;;;;5.30;2.33;;;13.40;89.30;;;;;;5138256;27;20011;-74
2021/08/23 04:50:09;;;;;;;7.38;2.38;;;13.40;89.20;;;;;;5156590;27;20067;-74
2021/08/23 04:52:42;;;;;;;3.85;2.10;;;13.40;89.00;;;;;;5156535;27;20043;-74
2021/08/23 04:55:08;;;;;;;6.13;2.33;;;13.40;88.70;;;;;;5156541;27;20102;-74
2021/08/23 04:57:34;;;;;;;5.25;2.63;;;13.50;88.50;;;;;;5155820;27;20036;-74
2021/08/23 04:59:59;;;;;;;5.68;2.00;;;13.50;88.70;;;;;;5155719;27;20022;-74
2021/08/23 05:02:25;;;;;;;5.47;1.90;;;13.60;88.40;;;;;;5156377;27;20471;-74
2021/08/23 05:04:50;;;;;;;3.70;2.05;;;13.70;88.30;;;;;;5156244;27;20019;-74
2021/08/23 05:07:16;;;;;;;5.35;2.38;;;13.80;88.00;;;;;;5156277;27;20398;-74
2021/08/23 05:09:42;;;;;;;2.63;1.98;;;13.80;87.90;;;;;;5156221;27;20383;-74
2021/08/23 05:12:07;;;;;;;4.50;2.20;;;13.90;87.90;;;;;;5156162;27;20463;-74
2021/08/23 05:14:33;;;;;;;5.93;2.65;;;14.00;87.80;;;;;;5156110;27;20022;-74
2021/08/23 05:16:58;;;;;;;6.38;2.30;;;14.10;87.60;;;;;;5137346;27;20019;-74
2021/08/23 05:19:24;;;;;;;4.90;2.30;;;14.00;87.60;;;;;;5155848;27;20481;-74
2021/08/23 05:21:50;;;;;;;7.85;2.25;;;14.10;87.70;;;;;;5155688;27;20567;-75
2021/08/23 05:24:15;;;;;;;6.25;2.08;;;14.10;87.50;;;;;;5155990;27;20021;-74
2021/08/23 05:26:41;;;;;;;8.05;2.22;;;14.10;87.70;;;;;;5156027;27;20038;-74
2021/08/23 05:29:07;;;;;;;4.53;1.80;;;14.20;87.70;;;;;;5155962;27;20023;-74
2021/08/23 05:31:32;;;;;;;4.40;2.30;;;14.20;87.30;;;;;;5155919;27;20027;-75
2021/08/23 05:33:58;;;;;;;2.75;2.20;;;14.30;87.10;;;;;;5155688;27;20424;-74
2021/08/23 05:36:23;;;;;;;4.38;2.30;;;14.30;86.90;;;;;;5155715;27;20061;-75
2021/08/23 05:38:49;;;;;;;6.60;2.78;;;14.30;86.80;;;;;;5137050;27;20019;-74
2021/08/23 05:41:15;;;;;;;2.97;2.20;;;14.30;86.90;;;;;;5155440;27;20102;-75
2021/08/23 05:43:41;;;;;;;5.65;3.00;;;14.30;86.90;;;;;;5155575;27;20019;-75
2021/08/23 05:46:06;;;;;;;6.65;3.63;;;14.40;86.80;;;;;;5155316;27;20026;-75
2021/08/23 05:48:32;;;;;;;8.25;3.28;;;14.50;86.90;;;;;;5155086;27;20467;-74
2021/08/23 05:50:58;;;;;;;5.20;3.22;;;14.50;87.00;;;;;;5154961;27;20027;-74
2021/08/23 05:53:23;;;;;;;4.50;3.35;;;14.50;86.90;;;;;;5155021;27;20042;-74
2021/08/23 05:55:49;;;;;;;4.72;2.78;;;14.60;86.80;;;;;;5155128;27;20097;-74
2021/08/23 05:58:15;;;;;;;3.78;2.50;;;14.70;86.60;;;;;;5155050;27;20482;-74
2021/08/23 06:00:40;;;;;;;3.13;1.95;;;14.80;86.30;;;;;;5155215;27;20110;-75
2021/08/23 06:03:06;;;;;;;3.35;2.03;;;14.80;86.10;;;;;;5157142;27;20063;-75
2021/08/23 06:05:31;;;;;;;3.15;2.05;;;14.90;86.50;;;;;;5156087;27;20084;-78
2021/08/23 06:07:58;;;;;;;3.50;2.35;;;14.90;86.50;;;;;;5155618;27;20479;-74
2021/08/23 06:10:23;;;;;;;4.32;2.40;;;14.80;86.30;;;;;;5154621;27;20031;-73
2021/08/23 06:12:49;;;;;;;11.70;2.70;;;14.90;86.40;;;;;;5155038;27;20485;-78
2021/08/23 06:15:15;;;;;;;8.68;3.08;;;14.90;88.90;;;;;;5155033;27;20076;-78
2021/08/23 06:17:40;;;;;;;5.68;2.97;;;15.10;91.20;;;;;;5154949;27;20026;-76
2021/08/23 06:20:07;;;;;;;5.30;2.72;;;15.20;90.00;;;;;;5154696;27;20019;-77
2021/08/23 06:22:33;;;;;;;53.20;11.63;;;15.30;89.00;;;;;;5154377;27;20109;-75
2021/08/23 06:24:58;;;;;;;11.30;3.97;;;15.50;90.60;;;;;;5154659;27;20446;-77
2021/08/23 06:27:24;;;;;;;15.65;4.65;;;15.60;88.50;;;;;;5154734;27;20088;-75
2021/08/23 06:29:50;;;;;;;9.57;3.60;;;15.80;88.90;;;;;;5154681;27;20058;-75
2021/08/23 06:32:15;;;;;;;9.05;3.25;;;16.00;86.80;;;;;;5154321;27;20038;-78
2021/08/23 06:34:41;;;;;;;10.70;2.90;;;16.10;85.60;;;;;;5154500;27;20023;-75
2021/08/23 06:37:07;;;;;;;6.43;2.67;;;16.30;86.40;;;;;;5156440;27;20415;-75
2021/08/23 06:39:32;;;;;;;7.10;2.55;;;16.50;83.60;;;;;;5156129;27;20109;-74
2021/08/23 06:41:58;;;;;;;3.72;2.15;;;16.70;83.20;;;;;;5154429;27;19918;-74
2021/08/23 06:44:23;;;;;;;7.20;2.42;;;16.90;81.70;;;;;;5154353;27;20054;-75
2021/08/23 06:46:49;;;;;;;4.10;1.85;;;17.10;81.10;;;;;;5154706;27;20023;-75
2021/08/23 06:49:14;;;;;;;3.40;1.80;;;17.20;80.50;;;;;;5155064;27;20031;-75
2021/08/23 06:51:40;;;;;;;6.15;2.03;;;17.20;80.20;;;;;;5155979;27;20022;-75
2021/08/23 06:54:05;;;;;;;2.90;2.00;;;17.30;79.70;;;;;;5157964;27;20042;-75
2021/08/23 06:56:31;;;;;;;2.83;1.75;;;17.40;78.80;;;;;;5160501;27;20026;-76
2021/08/23 06:58:57;;;;;;;3.42;1.88;;;17.40;76.50;;;;;;5157161;27;20026;-74
2021/08/23 07:01:27;;;;;;;2.85;1.70;;;17.50;76.40;;;;;;5156252;27;20490;-74
2021/08/23 07:03:53;;;;;;;5.93;1.40;;;17.60;76.00;;;;;;5156088;27;20029;-75
2021/08/23 07:06:19;;;;;;;3.75;1.75;;;17.60;74.40;;;;;;5155495;27;20379;-77
2021/08/23 07:08:45;;;;;;;4.18;1.70;;;17.50;73.00;;;;;;5155020;27;20022;-75
2021/08/23 07:11:11;;;;;;;3.70;1.75;;;17.20;72.40;;;;;;5155322;27;20419;-75
2021/08/23 07:13:39;;;;;;;4.43;2.30;;;17.20;73.60;;;;;;5154923;27;20083;-76
2021/08/23 07:16:05;;;;;;;6.38;1.67;;;17.10;73.40;;;;;;5154703;27;20034;-76
2021/08/23 07:18:31;;;;;;;4.88;1.95;;;17.10;73.00;;;;;;5154542;27;20110;-76
2021/08/23 07:20:57;;;;;;;6.18;2.30;;;17.10;73.40;;;;;;5155305;27;20055;-75
2021/08/23 07:23:22;;;;;;;5.38;1.90;;;17.00;74.30;;;;;;5158849;27;20382;-75
2021/08/23 07:25:48;;;;;;;7.30;2.05;;;17.10;73.60;;;;;;5158821;27;20023;-72
2021/08/23 07:28:14;;;;;;;5.22;2.35;;;17.00;73.20;;;;;;5159066;27;20019;-73
2021/08/23 07:30:41;;;;;;;3.85;2.10;;;17.00;73.30;;;;;;5158537;27;20034;-72
2021/08/23 07:33:07;;;;;;;4.50;2.22;;;17.00;73.70;;;;;;5158132;27;20023;-72
2021/08/23 07:35:32;;;;;;;10.18;2.15;;;17.20;73.50;;;;;;5158250;27;20026;-73
2021/08/23 07:37:58;;;;;;;5.70;1.90;;;17.40;73.80;;;;;;5157956;27;20079;-72
2021/08/23 07:40:23;;;;;;;3.13;1.80;;;17.60;73.40;;;;;;5157849;27;20023;-72
2021/08/23 07:42:49;;;;;;;4.25;1.77;;;17.80;71.80;;;;;;5158340;27;20037;-72
2021/08/23 07:45:18;;;;;;;2.67;1.65;;;18.00;70.40;;;;;;5158287;27;20071;-72
2021/08/23 07:47:44;;;;;;;4.38;1.77;;;18.10;69.50;;;;;;5157855;27;20014;-73
2021/08/23 07:50:10;;;;;;;4.63;1.75;;;18.20;69.20;;;;;;5157530;27;20034;-72
2021/08/23 07:52:36;;;;;;;5.85;2.30;;;18.30;68.60;;;;;;5157800;27;20050;-72
2021/08/23 07:55:02;;;;;;;5.57;1.95;;;18.20;68.50;;;;;;5157953;27;20023;-71
2021/08/23 07:57:28;;;;;;;4.85;1.88;;;18.10;68.50;;;;;;5157670;27;20117;-72
2021/08/23 07:59:53;;;;;;;4.15;1.85;;;18.20;70.00;;;;;;5138903;27;20121;-72
2021/08/23 08:02:19;;;;;;;5.38;1.73;;;18.10;69.60;;;;;;5157521;27;20027;-72
2021/08/23 08:04:44;;;;;;;4.10;1.73;;;18.10;69.40;;;;;;5157432;27;20015;-72
2021/08/23 08:07:10;;;;;;;4.20;2.05;;;18.20;68.40;;;;;;5157401;27;20022;-73
2021/08/23 08:09:35;;;;;;;4.68;1.80;;;17.90;69.60;;;;;;5157393;27;20021;-71
2021/08/23 08:12:02;;;;;;;3.05;1.60;;;17.90;70.10;;;;;;5157262;27;20153;-72
2021/08/23 08:14:28;;;;;;;3.47;1.63;;;17.80;70.10;;;;;;5157231;27;20035;-72
2021/08/23 08:16:55;;;;;;;5.53;1.85;;;17.90;69.90;;;;;;5157177;27;20421;-72
2021/08/23 08:19:21;;;;;;;6.97;1.90;;;18.10;69.50;;;;;;5157270;27;20034;-72
2021/08/23 08:21:46;;;;;;;3.28;2.13;;;18.10;69.90;;;;;;5156945;27;20027;-73
2021/08/23 08:24:12;;;;;;;6.30;1.80;;;18.40;69.40;;;;;;5157109;27;20106;-72
2021/08/23 08:26:37;;;;;;;3.63;1.80;;;18.60;68.30;;;;;;5156915;27;20359;-72
2021/08/23 08:29:03;;;;;;;5.18;1.60;;;18.90;67.80;;;;;;5156915;27;20364;-73
2021/08/23 08:31:28;;;;;;;3.83;1.58;;;19.10;67.40;;;;;;5157055;27;20035;-72
2021/08/23 08:33:54;;;;;;;5.40;2.10;;;19.40;66.40;;;;;;5156524;27;20015;-72
2021/08/23 08:36:21;;;;;;;2.90;1.60;;;19.40;64.70;;;;;;5156807;27;20055;-73
2021/08/23 08:38:48;;;;;;;5.22;1.60;;;19.50;64.50;;;;;;5138069;27;20107;-74
2021/08/23 08:41:14;;;;;;;6.25;1.70;;;19.40;63.20;;;;;;5156395;27;20497;-72
2021/08/23 08:43:40;;;;;;;4.13;1.75;;;19.30;64.40;;;;;;5156470;27;20039;-72
2021/08/23 08:46:07;;;;;;;4.07;1.50;;;19.40;64.50;;;;;;5156650;27;20382;-73
2021/08/23 08:48:33;;;;;;;3.47;1.05;;;19.50;62.90;;;;;;5156473;27;20098;-73
2021/08/23 08:51:00;;;;;;;3.20;1.42;;;19.50;62.90;;;;;;5156330;27;20532;-72
2021/08/23 08:53:25;;;;;;;4.57;1.65;;;19.60;62.50;;;;;;5156319;27;20126;-72
2021/08/23 08:55:51;;;;;;;2.55;1.50;;;19.60;62.90;;;;;;5156406;27;20443;-72
2021/08/23 08:58:22;;;;;;;5.70;1.65;;;19.60;63.00;;;;;;5156444;27;20046;-72
2021/08/23 09:00:47;;;;;;;4.43;1.60;;;19.80;62.60;;;;;;5156147;27;20523;-72
2021/08/23 09:03:27;;;;;;;4.47;1.55;;;20.00;62.40;;;;;;5156180;27;20030;-73
2021/08/23 09:06:03;;;;;;;3.95;1.85;;;20.20;59.80;;;;;;5156278;27;20584;-72
2021/08/23 09:08:29;;;;;;;3.33;1.45;;;20.20;59.80;;;;;;5156171;27;20011;-72
2021/08/23 09:11:09;;;;;;;3.47;1.50;;;20.20;58.20;;;;;;5156059;27;20019;-73
2021/08/23 09:13:34;;;;;;;4.25;1.40;;;19.80;60.70;;;;;;5156540;27;20123;-73
2021/08/23 09:16:00;;;;;;;5.80;1.63;;;19.50;60.10;;;;;;5155783;27;20466;-73
2021/08/23 09:18:29;;;;;;;2.33;1.27;;;19.30;60.80;;;;;;5155987;27;20019;-71
2021/08/23 09:20:56;;;;;;;2.33;1.20;;;19.00;61.80;;;;;;5153886;27;20471;-71
2021/08/23 09:23:42;;;;;;;2.55;1.73;;;19.00;61.50;;;;;;5154136;27;20022;-74
2021/08/23 09:26:08;;;;;;;3.65;1.75;;;19.10;63.00;;;;;;5155306;27;20094;-73
2021/08/23 09:28:34;;;;;;;3.55;1.92;;;19.10;62.60;;;;;;5155810;27;20018;-73
2021/08/23 09:31:00;;;;;;;4.97;1.50;;;19.20;62.00;;;;;;5155619;27;20027;-74
2021/08/23 09:33:25;;;;;;;4.18;1.90;;;19.20;62.50;;;;;;5155817;27;20011;-73
2021/08/23 09:35:52;;;;;;;3.15;1.40;;;19.30;62.00;;;;;;5156149;27;20022;-73
2021/08/23 09:38:18;;;;;;;3.10;1.60;;;19.50;60.60;;;;;;5156193;27;20018;-72
2021/08/23 09:40:46;;;;;;;4.32;1.40;;;19.70;59.60;;;;;;5155670;27;20033;-75
2021/08/23 09:43:15;;;;;;;3.30;1.52;;;19.80;59.60;;;;;;5155511;27;20109;-74
2021/08/23 09:45:49;;;;;;;5.82;1.52;;;19.90;60.20;;;;;;5154849;27;20068;-73
2021/08/23 09:48:16;;;;;;;3.15;1.40;;;19.80;59.20;;;;;;5155342;27;20027;-73
2021/08/23 09:50:46;;;;;;;2.35;1.17;;;20.10;58.40;;;;;;5155328;27;20019;-73
2021/08/23 09:53:20;;;;;;;2.92;1.45;;;20.20;55.30;;;;;;5155223;27;20078;-73
2021/08/23 09:55:48;;;;;;;6.15;2.35;;;20.00;57.30;;;;;;5155240;27;20019;-72
2021/08/23 09:58:14;;;;;;;7.05;1.80;;;19.80;59.10;;;;;;5154856;27;20031;-73
2021/08/23 10:00:41;;;;;;;3.97;1.65;;;20.00;59.20;;;;;;5154958;27;20439;-73
2021/08/23 10:03:13;;;;;;;3.97;1.40;;;20.10;59.40;;;;;;5154866;27;20018;-73
2021/08/23 10:05:44;;;;;;;5.93;2.10;;;20.20;59.60;;;;;;5155011;27;20018;-73
2021/08/23 10:08:17;;;;;;;2.35;1.30;;;20.20;59.20;;;;;;5135375;27;20470;-72
2021/08/23 10:10:44;;;;;;;3.80;1.92;;;20.30;60.60;;;;;;5154549;27;20587;-73
2021/08/23 10:13:10;;;;;;;4.82;1.58;;;20.20;59.00;;;;;;5154417;27;20394;-72
2021/08/23 10:15:37;;;;;;;4.57;1.73;;;20.10;62.10;;;;;;5154614;27;20371;-71
2021/08/23 10:18:03;;;;;;;4.10;1.80;;;20.20;60.30;;;;;;5154638;27;20030;-72
2021/08/23 10:20:29;;;;;;;2.88;1.50;;;20.10;62.20;;;;;;5136088;27;20451;-72
2021/08/23 10:22:56;;;;;;;4.03;1.80;;;20.10;61.10;;;;;;5154651;27;20026;-72
2021/08/23 10:25:22;;;;;;;4.55;1.63;;;20.40;59.90;;;;;;5154541;27;20034;-72
2021/08/23 10:27:48;;;;;;;3.75;1.65;;;20.80;59.20;;;;;;5154768;27;20439;-72
2021/08/23 10:30:22;;;;;;;3.25;1.50;;;20.90;57.20;;;;;;5156501;27;20033;-72
2021/08/23 10:32:48;;;;;;;4.05;1.50;;;20.60;57.40;;;;;;5159741;27;20087;-71
2021/08/23 10:35:22;;;;;;;2.83;2.20;;;20.80;57.70;;;;;;5159891;27;20417;-71
2021/08/23 10:37:49;;;;;;;7.72;2.25;;;20.90;56.40;;;;;;5157557;27;20061;-72
2021/08/23 10:40:16;;;;;;;2.28;1.52;;;21.20;56.00;;;;;;5155193;27;20031;-71
2021/08/23 10:42:47;;;;;;;4.47;1.80;;;21.00;55.50;;;;;;5154990;27;20160;-72
2021/08/23 10:45:17;;;;;;;4.20;1.90;;;20.90;57.60;;;;;;5154791;27;20458;-72
2021/08/23 10:47:45;;;;;;;2.72;1.27;;;20.50;59.00;;;;;;5154743;27;20514;-72
2021/08/23 10:50:25;;;;;;;5.57;1.30;;;20.80;58.70;;;;;;5154533;27;20072;-72
2021/08/23 10:52:52;;;;;;;2.83;1.65;;;20.90;57.30;;;;;;5154529;27;20064;-72
2021/08/23 10:55:25;;;;;;;3.72;1.92;;;20.90;56.60;;;;;;5154948;27;20017;-72
2021/08/23 10:58:05;;;;;;;3.28;1.52;;;20.60;57.30;;;;;;5158746;27;20027;-72
2021/08/23 11:00:41;;;;;;;4.82;1.60;;;20.50;59.70;;;;;;5159006;27;20022;-72
2021/08/23 11:03:11;;;;;;;4.10;1.60;;;20.20;64.50;;;;;;5158367;27;20026;-76
2021/08/23 11:05:37;;;;;;;3.65;1.80;;;20.00;65.30;;;;;;5139354;27;20526;-76
2021/08/23 11:08:12;;;;;;;5.20;1.77;;;20.00;64.30;;;;;;5139528;27;20098;-76
2021/08/23 11:10:39;;;;;;;2.22;1.67;;;19.90;66.80;;;;;;5139986;27;20084;-77
2021/08/23 11:13:15;;;;;;;4.57;1.67;;;20.00;66.20;;;;;;5139959;27;20383;-77
2021/08/23 11:15:44;;;;;;;2.78;1.58;;;20.10;67.30;;;;;;5140107;27;20475;-79
2021/08/23 11:18:11;;;;;;;2.63;1.50;;;20.20;67.60;;;;;;5139660;27;20030;-79
2021/08/23 11:20:49;;;;;;;3.55;1.85;;;20.30;67.70;;;;;;5140184;27;20144;-81
2021/08/23 11:23:19;;;;;;;2.97;1.83;;;20.40;67.30;;;;;;5140119;27;20019;-80
2021/08/23 11:25:49;;;;;;;4.28;2.03;;;20.50;67.10;;;;;;5123025;27;20037;-82
2021/08/23 11:28:21;;;;;;;3.90;1.70;;;20.60;67.30;;;;;;5158079;27;20015;-82
2021/08/23 11:30:51;;;;;;;2.10;1.70;;;20.80;66.20;;;;;;5139785;27;20042;-78
2021/08/23 11:33:32;;;;;;;3.85;1.45;;;21.00;61.90;;;;;;5139845;27;20046;-78
2021/08/23 11:36:00;;;;;;;4.15;1.77;;;20.80;59.70;;;;;;5139610;27;20118;-78
2021/08/23 11:38:32;;;;;;;3.17;1.20;;;20.70;59.80;;;;;;5139761;27;20029;-78
2021/08/23 11:40:59;;;;;;;3.83;1.48;;;20.60;61.80;;;;;;5139623;27;20340;-78
2021/08/23 11:43:29;;;;;;;4.05;1.65;;;20.60;62.20;;;;;;5139592;27;20023;-79
2021/08/23 11:45:57;;;;;;;3.72;1.65;;;20.50;61.30;;;;;;5139039;27;20065;-79
2021/08/23 11:48:23;;;;;;;2.78;1.60;;;20.80;61.30;;;;;;5139342;27;20071;-79
2021/08/23 11:50:48;;;;;;;3.50;2.10;;;21.00;58.90;;;;;;5139430;27;20031;-80
2021/08/23 11:53:15;;;;;;;3.55;1.65;;;20.90;60.70;;;;;;5138737;27;20051;-80
2021/08/23 11:55:46;;;;;;;3.30;1.65;;;21.20;59.20;;;;;;5122088;27;20027;-75
2021/08/23 11:58:12;;;;;;;4.63;1.45;;;21.30;57.30;;;;;;5139044;27;20547;-75
2021/08/23 12:00:41;;;;;;;6.22;1.92;;;21.20;56.60;;;;;;5139077;27;20364;-76
2021/08/23 12:03:17;;;;;;;4.20;1.83;;;20.80;57.80;;;;;;5138807;27;20040;-76
2021/08/23 12:05:48;;;;;;;2.05;1.63;;;21.10;57.80;;;;;;5138308;27;20023;-76
2021/08/23 12:08:27;;;;;;;1.98;1.50;;;21.60;56.40;;;;;;5138105;27;20019;-77
2021/08/23 12:11:01;;;;;;;6.57;1.60;;;22.40;53.50;;;;;;5138344;27;20061;-76
2021/08/23 12:13:49;;;;;;;3.30;1.38;;;23.00;52.10;;;;;;5138752;27;20071;-76
2021/08/23 12:16:16;;;;;;;2.92;1.45;;;23.40;49.20;;;;;;5157060;27;20034;-74
2021/08/23 12:18:46;;;;;;;2.80;1.60;;;23.40;47.50;;;;;;5138395;27;20022;-74
2021/08/23 12:21:27;;;;;;;3.53;1.30;;;23.30;48.30;;;;;;5138538;27;20091;-77
2021/08/23 12:23:57;;;;;;;3.53;1.25;;;23.00;48.00;;;;;;5138967;27;20031;-76
2021/08/23 12:26:39;;;;;;;3.58;1.35;;;22.70;48.90;;;;;;5139045;27;20022;-74
2021/08/23 12:29:13;;;;;;;1.58;1.10;;;22.00;53.40;;;;;;5139302;27;20041;-74
2021/08/23 12:31:46;;;;;;;3.17;1.35;;;21.90;53.60;;;;;;5139623;27;20479;-75
2021/08/23 12:34:13;;;;;;;4.90;1.70;;;21.60;54.90;;;;;;5156900;27;20141;-77
2021/08/23 12:36:39;;;;;;;3.58;1.80;;;21.20;56.40;;;;;;5138485;27;20515;-75
2021/08/23 12:39:04;;;;;;;3.50;1.58;;;21.10;57.80;;;;;;5138422;27;20015;-75
2021/08/23 12:41:30;;;;;;;2.20;1.20;;;21.10;58.00;;;;;;5137830;27;20050;-75
2021/08/23 12:43:56;;;;;;;4.63;1.33;;;20.90;59.90;;;;;;5138302;27;20056;-76
2021/08/23 12:46:21;;;;;;;2.28;1.27;;;20.80;60.80;;;;;;5138211;27;20029;-76
2021/08/23 12:48:47;;;;;;;1.83;1.40;;;20.80;60.20;;;;;;5137973;27;20023;-76